createdAt,value
2023-10-04T00:02:13.257Z,21.30
2023-10-04T00:04:44.852Z,21.26
2023-10-04T00:07:12.355Z,21.23
2023-10-04T00:09:39.572Z,21.22
2023-10-04T00:12:06.693Z,21.21
2023-10-04T00:14:33.560Z,21.20
2023-10-04T00:17:01.235Z,21.18
2023-10-04T00:19:29.321Z,21.18
2023-10-04T00:21:56.391Z,21.17
2023-10-04T00:24:23.443Z,21.14
2023-10-04T00:26:51.050Z,21.13
2023-10-04T00:29:20.748Z,21.09
2023-10-04T00:31:48.663Z,21.08
2023-10-04T00:34:15.827Z,21.07
2023-10-04T00:36:45.169Z,21.06
2023-10-04T00:39:14.921Z,21.02
2023-10-04T00:41:43.934Z,21.01
2023-10-04T00:44:10.822Z,21.00
2023-10-04T00:46:42.031Z,20.98
2023-10-04T00:49:09.703Z,20.97
2023-10-04T00:51:38.243Z,20.94
2023-10-04T00:54:10.590Z,20.91
2023-10-04T00:56:39.300Z,20.88
2023-10-04T00:59:06.484Z,20.87
2023-10-04T01:01:33.780Z,20.88
2023-10-04T01:04:06.250Z,20.89
2023-10-04T01:06:33.776Z,20.91
2023-10-04T01:09:01.986Z,20.91
2023-10-04T01:11:38.448Z,20.90
2023-10-04T01:14:18.751Z,20.90
2023-10-04T01:16:46.119Z,20.88
2023-10-04T01:19:17.133Z,20.88
2023-10-04T01:21:46.337Z,20.88
2023-10-04T01:24:13.670Z,20.85
2023-10-04T01:26:42.530Z,20.83
2023-10-04T01:29:13.352Z,20.82
2023-10-04T01:31:40.433Z,20.82
2023-10-04T01:34:08.465Z,20.81
2023-10-04T01:36:40.046Z,20.80
2023-10-04T01:39:09.199Z,20.80
2023-10-04T01:41:40.201Z,20.78
2023-10-04T01:44:11.621Z,20.78
2023-10-04T01:46:39.613Z,20.77
2023-10-04T01:49:10.130Z,20.75
2023-10-04T01:51:37.484Z,20.72
2023-10-04T01:54:06.131Z,20.72
2023-10-04T01:56:33.240Z,20.70
2023-10-04T01:59:00.874Z,20.67
2023-10-04T02:01:27.932Z,20.65
2023-10-04T02:03:55.095Z,20.64
2023-10-04T02:06:23.207Z,20.62
2023-10-04T02:08:51.096Z,20.60
2023-10-04T02:11:22.276Z,20.59
2023-10-04T02:13:49.339Z,20.59
2023-10-04T02:16:21.346Z,20.58
2023-10-04T02:18:49.743Z,20.58
2023-10-04T02:21:19.094Z,20.58
2023-10-04T02:23:46.696Z,20.57
2023-10-04T02:26:13.962Z,20.54
2023-10-04T02:28:41.275Z,20.50
2023-10-04T02:31:08.136Z,20.49
2023-10-04T02:33:35.917Z,20.48
2023-10-04T02:36:05.622Z,20.47
2023-10-04T02:38:35.497Z,20.46
2023-10-04T02:41:06.529Z,20.45
2023-10-04T02:43:38.139Z,20.43
2023-10-04T02:46:05.451Z,20.42
2023-10-04T02:48:34.028Z,20.42
2023-10-04T02:51:02.487Z,20.41
2023-10-04T02:53:30.254Z,20.40
2023-10-04T02:55:58.865Z,20.41
2023-10-04T02:58:33.090Z,20.39
2023-10-04T03:01:00.659Z,20.39
2023-10-04T03:03:27.648Z,20.38
2023-10-04T03:05:58.913Z,20.37
2023-10-04T03:08:25.902Z,20.36
2023-10-04T03:10:56.511Z,20.36
2023-10-04T03:13:27.108Z,20.33
2023-10-04T03:15:57.510Z,20.30
2023-10-04T03:18:26.798Z,20.27
2023-10-04T03:21:02.153Z,20.26
2023-10-04T03:23:36.846Z,20.23
2023-10-04T03:26:13.436Z,20.21
2023-10-04T03:28:41.630Z,20.19
2023-10-04T03:31:15.125Z,20.17
2023-10-04T03:33:47.545Z,20.16
2023-10-04T03:36:19.258Z,20.16
2023-10-04T03:38:50.750Z,20.15
2023-10-04T03:41:20.368Z,20.14
2023-10-04T03:43:48.384Z,20.14
2023-10-04T03:46:20.133Z,20.15
2023-10-04T03:48:52.975Z,20.13
2023-10-04T03:51:22.419Z,20.14
2023-10-04T03:53:52.648Z,20.13
2023-10-04T03:56:23.134Z,20.12
2023-10-04T03:58:51.919Z,20.11
2023-10-04T04:01:20.641Z,20.11
2023-10-04T04:03:50.535Z,20.10
2023-10-04T04:06:18.437Z,20.08
2023-10-04T04:08:48.211Z,20.06
2023-10-04T04:11:15.657Z,20.05
2023-10-04T04:13:43.202Z,20.07
2023-10-04T04:16:13.207Z,20.05
2023-10-04T04:18:41.677Z,20.05
2023-10-04T04:21:09.144Z,20.04
2023-10-04T04:23:37.782Z,20.00
2023-10-04T04:26:09.105Z,19.98
2023-10-04T04:28:37.929Z,19.97
2023-10-04T04:31:15.459Z,19.98
2023-10-04T04:33:44.540Z,19.96
2023-10-04T04:36:26.999Z,19.95
2023-10-04T04:38:56.515Z,19.91
2023-10-04T04:41:26.831Z,19.92
2023-10-04T04:43:56.214Z,19.91
2023-10-04T04:46:24.473Z,19.91
2023-10-04T04:48:56.097Z,19.91
2023-10-04T04:51:25.023Z,19.92
2023-10-04T04:53:54.751Z,19.90
2023-10-04T04:56:28.057Z,19.90
2023-10-04T04:58:58.881Z,19.89
2023-10-04T05:01:35.339Z,19.91
2023-10-04T05:04:08.097Z,19.91
2023-10-04T05:06:35.548Z,19.92
2023-10-04T05:09:02.954Z,19.94
2023-10-04T05:11:30.266Z,19.94
2023-10-04T05:13:57.910Z,19.94
2023-10-04T05:16:26.471Z,19.95
2023-10-04T05:18:55.304Z,19.94
2023-10-04T05:21:22.479Z,19.95
2023-10-04T05:23:49.489Z,19.94
2023-10-04T05:26:16.403Z,19.94
2023-10-04T05:28:43.423Z,19.94
2023-10-04T05:31:10.552Z,19.93
2023-10-04T05:33:37.860Z,19.92
2023-10-04T05:36:07.052Z,19.94
2023-10-04T05:38:35.794Z,19.94
2023-10-04T05:41:06.641Z,19.96
2023-10-04T05:43:35.715Z,19.94
2023-10-04T05:46:04.473Z,19.94
2023-10-04T05:48:31.441Z,19.93
2023-10-04T05:50:59.704Z,19.95
2023-10-04T05:53:28.810Z,19.96
2023-10-04T05:55:55.950Z,19.97
2023-10-04T05:58:23.160Z,19.96
2023-10-04T06:00:54.583Z,19.95
2023-10-04T06:03:23.479Z,19.96
2023-10-04T06:05:53.055Z,19.96
2023-10-04T06:08:21.196Z,19.98
2023-10-04T06:10:54.675Z,19.96
2023-10-04T06:13:27.084Z,19.99
2023-10-04T06:15:56.327Z,19.98
2023-10-04T06:18:30.085Z,19.98
2023-10-04T06:21:01.445Z,20.00
2023-10-04T06:23:32.335Z,20.01
2023-10-04T06:25:59.815Z,20.04
2023-10-04T06:28:26.596Z,20.06
2023-10-04T06:30:54.331Z,20.07
2023-10-04T06:33:21.459Z,20.10
2023-10-04T06:35:48.759Z,20.11
2023-10-04T06:38:16.004Z,20.14
2023-10-04T06:40:44.297Z,20.15
2023-10-04T06:43:12.813Z,20.17
2023-10-04T06:45:43.528Z,20.18
2023-10-04T06:48:11.277Z,20.21
2023-10-04T06:50:41.984Z,20.22
2023-10-04T06:53:13.713Z,20.22
2023-10-04T06:55:42.851Z,20.23
2023-10-04T06:58:12.750Z,20.24
2023-10-04T07:00:42.514Z,20.27
2023-10-04T07:03:17.136Z,20.30
2023-10-04T07:05:45.127Z,20.31
2023-10-04T07:08:17.395Z,20.33
2023-10-04T07:10:46.328Z,20.36
2023-10-04T07:13:13.567Z,20.38
2023-10-04T07:15:44.511Z,20.38
2023-10-04T07:18:14.050Z,20.41
2023-10-04T07:20:42.596Z,20.42
2023-10-04T07:23:11.641Z,20.44
2023-10-04T07:25:48.224Z,20.47
2023-10-04T07:28:15.028Z,20.46
2023-10-04T07:30:43.031Z,20.48
2023-10-04T07:33:11.789Z,20.51
2023-10-04T07:35:39.555Z,20.54
2023-10-04T07:38:07.322Z,20.57
2023-10-04T07:40:36.706Z,20.60
2023-10-04T07:43:05.057Z,20.63
2023-10-04T07:45:33.609Z,20.64
2023-10-04T07:48:01.477Z,20.68
2023-10-04T07:50:29.876Z,20.73
2023-10-04T07:53:00.917Z,20.77
2023-10-04T07:55:29.187Z,20.81
2023-10-04T07:57:59.989Z,20.85
2023-10-04T08:00:28.380Z,20.91
2023-10-04T08:02:55.258Z,20.95
2023-10-04T08:05:26.549Z,20.99
2023-10-04T08:08:03.852Z,21.03
2023-10-04T08:10:37.776Z,21.01
2023-10-04T08:13:07.040Z,21.06
2023-10-04T08:15:39.369Z,21.07
2023-10-04T08:18:07.228Z,21.11
2023-10-04T08:20:37.529Z,21.11
2023-10-04T08:23:04.857Z,21.08
2023-10-04T08:25:34.028Z,21.13
2023-10-04T08:28:02.100Z,21.10
2023-10-04T08:30:29.567Z,21.14
2023-10-04T08:32:56.438Z,21.15
2023-10-04T08:35:25.154Z,21.17
2023-10-04T08:37:56.261Z,21.20
2023-10-04T08:40:25.512Z,21.22
2023-10-04T08:42:52.903Z,21.26
2023-10-04T08:45:21.574Z,21.27
2023-10-04T08:47:56.392Z,21.30
2023-10-04T08:50:38.099Z,21.35
2023-10-04T08:53:41.711Z,21.38
2023-10-04T08:56:16.850Z,21.44
2023-10-04T08:58:45.375Z,21.50
2023-10-04T09:01:17.092Z,21.57
2023-10-04T09:03:45.690Z,21.63
2023-10-04T09:06:18.180Z,21.68
2023-10-04T09:08:45.408Z,21.73
2023-10-04T09:11:13.592Z,21.78
2023-10-04T09:13:51.046Z,21.81
2023-10-04T09:16:31.361Z,21.84
2023-10-04T09:19:19.786Z,21.85
2023-10-04T09:21:52.113Z,21.86
2023-10-04T09:24:19.039Z,21.90
2023-10-04T09:26:56.090Z,21.94
2023-10-04T09:29:36.936Z,21.97
2023-10-04T09:32:05.487Z,22.00
2023-10-04T09:34:34.478Z,22.04
2023-10-04T09:37:01.899Z,22.08
2023-10-04T09:39:33.145Z,22.12
2023-10-04T09:42:05.211Z,22.16
2023-10-04T09:44:37.023Z,22.24
2023-10-04T09:47:04.460Z,22.31
2023-10-04T09:49:35.151Z,22.40
2023-10-04T09:52:17.724Z,22.47
2023-10-04T09:54:44.811Z,22.53
2023-10-04T09:57:13.528Z,22.58
2023-10-04T09:59:41.446Z,22.64
2023-10-04T10:02:11.401Z,22.71
2023-10-04T10:04:45.063Z,22.77
2023-10-04T10:07:17.563Z,22.84
2023-10-04T10:10:15.681Z,22.90
2023-10-04T10:12:47.723Z,22.97
2023-10-04T10:15:14.912Z,23.06
2023-10-04T10:17:44.664Z,23.16
2023-10-04T10:20:13.678Z,23.25
2023-10-04T10:23:01.740Z,23.35
2023-10-04T10:25:30.940Z,23.41
2023-10-04T10:27:59.138Z,23.46
2023-10-04T10:30:26.549Z,23.52
2023-10-04T10:32:57.967Z,23.60
2023-10-04T10:35:49.973Z,23.61
2023-10-04T10:38:41.807Z,23.64
2023-10-04T10:41:12.310Z,23.69
2023-10-04T10:44:20.346Z,23.71
2023-10-04T10:47:08.997Z,23.76
2023-10-04T10:49:42.297Z,23.82
2023-10-04T10:52:29.639Z,23.82
2023-10-04T10:55:02.965Z,23.84
2023-10-04T10:57:30.873Z,23.86
2023-10-04T11:00:13.941Z,23.95
2023-10-04T11:02:41.680Z,24.00
2023-10-04T11:05:10.126Z,24.03
2023-10-04T11:07:39.032Z,24.07
2023-10-04T11:10:07.825Z,24.07
2023-10-04T11:12:38.884Z,24.14
2023-10-04T11:15:10.615Z,24.22
2023-10-04T11:17:39.172Z,24.30
2023-10-04T11:20:11.727Z,24.36
2023-10-04T11:22:40.986Z,24.41
2023-10-04T11:25:10.002Z,24.43
2023-10-04T11:27:38.910Z,24.50
2023-10-04T11:30:07.639Z,24.58
2023-10-04T11:32:35.325Z,24.67
2023-10-04T11:35:09.441Z,24.74
2023-10-04T11:37:48.751Z,24.80
2023-10-04T11:40:21.753Z,24.89
2023-10-04T11:43:00.961Z,24.98
2023-10-04T11:45:29.564Z,25.04
2023-10-04T11:48:07.435Z,25.01
2023-10-04T11:50:45.400Z,25.01
2023-10-04T11:53:13.754Z,25.01
2023-10-04T11:55:41.280Z,25.06
2023-10-04T11:58:11.485Z,25.13
2023-10-04T12:00:38.873Z,25.23
2023-10-04T12:03:07.348Z,25.29
2023-10-04T12:05:34.632Z,25.36
2023-10-04T12:08:02.286Z,25.39
2023-10-04T12:10:29.455Z,25.39
2023-10-04T12:12:59.374Z,25.45
2023-10-04T12:15:26.794Z,25.53
2023-10-04T12:17:53.943Z,25.56
2023-10-04T12:20:25.765Z,25.56
2023-10-04T12:22:53.132Z,25.62
2023-10-04T12:25:23.034Z,25.73
2023-10-04T12:27:50.215Z,25.80
2023-10-04T12:30:19.510Z,25.86
2023-10-04T12:32:52.109Z,25.90
2023-10-04T12:35:22.520Z,25.94
2023-10-04T12:37:50.146Z,26.01
2023-10-04T12:40:24.900Z,26.07
2023-10-04T12:42:52.948Z,26.12
2023-10-04T12:45:21.088Z,26.16
2023-10-04T12:47:49.132Z,26.19
2023-10-04T12:50:16.306Z,26.17
2023-10-04T12:52:45.203Z,26.18
2023-10-04T12:55:13.266Z,26.17
2023-10-04T12:57:41.141Z,26.22
2023-10-04T13:00:16.761Z,26.29
2023-10-04T13:02:45.558Z,26.32
2023-10-04T13:05:19.815Z,26.37
2023-10-04T13:07:48.557Z,26.43
2023-10-04T13:10:17.107Z,26.45
2023-10-04T13:12:44.340Z,26.51
2023-10-04T13:15:13.480Z,26.55
2023-10-04T13:17:41.028Z,26.63
2023-10-04T13:20:12.123Z,26.70
2023-10-04T13:22:39.787Z,26.77
2023-10-04T13:25:08.147Z,26.83
2023-10-04T13:27:36.253Z,26.86
2023-10-04T13:30:05.490Z,26.89
2023-10-04T13:32:33.120Z,26.93
2023-10-04T13:35:01.408Z,26.97
2023-10-04T13:37:29.039Z,27.01
2023-10-04T13:39:57.062Z,27.08
2023-10-04T13:42:29.065Z,27.04
2023-10-04T13:44:58.793Z,27.05
2023-10-04T13:47:26.942Z,27.08
2023-10-04T13:49:54.062Z,27.08
2023-10-04T13:52:22.028Z,27.12
2023-10-04T13:54:55.733Z,27.10
2023-10-04T13:57:24.048Z,27.12
2023-10-04T13:59:50.985Z,27.10
2023-10-04T14:02:20.491Z,27.12
2023-10-04T14:04:47.746Z,27.14
2023-10-04T14:07:15.266Z,27.18
2023-10-04T14:09:45.468Z,27.17
2023-10-04T14:12:12.703Z,27.19
2023-10-04T14:14:39.734Z,27.15
2023-10-04T14:17:07.048Z,27.08
2023-10-04T14:19:33.942Z,27.01
2023-10-04T14:22:02.540Z,26.94
2023-10-04T14:24:29.633Z,26.87
2023-10-04T14:27:02.187Z,26.78
2023-10-04T14:29:31.340Z,26.74
2023-10-04T14:31:59.135Z,26.64
2023-10-04T14:34:26.468Z,26.63
2023-10-04T14:36:54.620Z,26.60
2023-10-04T14:39:24.782Z,26.55
2023-10-04T14:41:52.035Z,26.50
2023-10-04T14:44:18.999Z,26.46
2023-10-04T14:46:45.950Z,26.45
2023-10-04T14:49:12.902Z,26.41
2023-10-04T14:51:39.739Z,26.38
2023-10-04T14:54:06.986Z,26.30
2023-10-04T14:56:34.054Z,26.26
2023-10-04T14:59:01.055Z,26.25
2023-10-04T15:01:27.922Z,26.21
2023-10-04T15:03:58.695Z,26.19
2023-10-04T15:06:30.585Z,26.18
2023-10-04T15:08:57.962Z,26.17
2023-10-04T15:11:30.579Z,26.14
2023-10-04T15:13:59.512Z,26.12
2023-10-04T15:16:26.923Z,26.09
2023-10-04T15:18:54.572Z,26.09
2023-10-04T15:21:21.773Z,26.09
2023-10-04T15:23:48.640Z,26.09
2023-10-04T15:26:18.652Z,26.11
2023-10-04T15:28:47.165Z,26.10
2023-10-04T15:31:16.241Z,26.10
2023-10-04T15:33:45.788Z,26.09
2023-10-04T15:36:14.252Z,26.08
2023-10-04T15:38:41.350Z,26.06
2023-10-04T15:41:09.198Z,26.03
2023-10-04T15:43:36.678Z,26.03
2023-10-04T15:46:04.271Z,26.00
2023-10-04T15:48:31.253Z,25.98
2023-10-04T15:50:58.112Z,25.97
2023-10-04T15:53:25.607Z,25.96
2023-10-04T15:55:52.584Z,25.94
2023-10-04T15:58:19.811Z,25.93
2023-10-04T16:00:46.952Z,25.91
2023-10-04T16:03:15.316Z,25.90
2023-10-04T16:05:42.584Z,25.88
2023-10-04T16:08:09.883Z,25.87
2023-10-04T16:10:37.091Z,25.82
2023-10-04T16:13:08.108Z,25.79
2023-10-04T16:15:36.325Z,25.77
2023-10-04T16:18:03.983Z,25.74
2023-10-04T16:20:31.009Z,25.73
2023-10-04T16:22:58.984Z,25.71
2023-10-04T16:25:27.395Z,25.68
2023-10-04T16:27:54.964Z,25.67
2023-10-04T16:30:22.272Z,25.63
2023-10-04T16:32:49.837Z,25.61
2023-10-04T16:35:21.110Z,25.58
2023-10-04T16:37:51.908Z,25.53
2023-10-04T16:40:21.101Z,25.51
2023-10-04T16:42:50.835Z,25.47
2023-10-04T16:45:19.197Z,25.42
2023-10-04T16:47:48.560Z,25.38
2023-10-04T16:50:21.500Z,25.35
2023-10-04T16:52:54.077Z,25.30
2023-10-04T16:55:21.219Z,25.27
2023-10-04T16:57:50.162Z,25.22
2023-10-04T17:00:18.987Z,25.19
2023-10-04T17:02:46.959Z,25.18
2023-10-04T17:05:16.039Z,25.15
2023-10-04T17:07:44.347Z,25.12
2023-10-04T17:10:13.531Z,25.09
2023-10-04T17:15:12.275Z,25.03
2023-10-04T17:17:39.243Z,25.01
2023-10-04T17:20:06.896Z,24.98
2023-10-04T17:22:33.803Z,24.93
2023-10-04T17:25:04.246Z,24.91
2023-10-04T17:27:32.610Z,24.87
2023-10-04T17:29:59.598Z,24.85
2023-10-04T17:32:26.597Z,24.84
2023-10-04T17:35:00.421Z,24.83
2023-10-04T17:37:27.497Z,24.79
2023-10-04T17:39:54.438Z,24.77
2023-10-04T17:42:22.304Z,24.74
2023-10-04T17:44:49.099Z,24.74
2023-10-04T17:47:15.899Z,24.72
2023-10-04T17:49:42.730Z,24.68
2023-10-04T17:52:09.600Z,24.68
2023-10-04T17:54:36.466Z,24.65
2023-10-04T17:57:03.401Z,24.65
2023-10-04T17:59:30.202Z,24.65
2023-10-04T18:01:57.304Z,24.61
2023-10-04T18:04:24.333Z,24.58
2023-10-04T18:06:51.419Z,24.54
2023-10-04T18:09:19.276Z,24.49
2023-10-04T18:11:46.225Z,24.47
2023-10-04T18:14:13.881Z,24.46
2023-10-04T18:16:42.508Z,24.43
2023-10-04T18:19:11.951Z,24.41
2023-10-04T18:21:39.277Z,24.40
2023-10-04T18:24:10.172Z,24.35
2023-10-04T18:26:37.897Z,24.33
2023-10-04T18:29:05.284Z,24.33
2023-10-04T18:31:32.900Z,24.31
2023-10-04T18:34:01.477Z,24.30
2023-10-04T18:36:28.499Z,24.27
2023-10-04T18:38:55.501Z,24.23
2023-10-04T18:41:23.800Z,24.21
2023-10-04T18:43:50.832Z,24.16
2023-10-04T18:46:18.015Z,24.15
2023-10-04T18:48:44.982Z,24.14
2023-10-04T18:51:12.251Z,24.12
2023-10-04T18:53:39.653Z,24.11
2023-10-04T18:56:06.550Z,24.07
2023-10-04T18:58:33.559Z,24.05
2023-10-04T19:01:04.821Z,24.06
2023-10-04T19:03:33.610Z,24.01
2023-10-04T19:06:00.772Z,24.00
2023-10-04T19:08:29.981Z,23.99
2023-10-04T19:10:59.132Z,23.99
2023-10-04T19:13:29.566Z,23.97
2023-10-04T19:15:56.638Z,23.93
2023-10-04T19:18:23.622Z,23.90
2023-10-04T19:20:53.068Z,23.87
2023-10-04T19:23:23.262Z,23.84
2023-10-04T19:25:54.062Z,23.79
2023-10-04T19:28:22.240Z,23.76
2023-10-04T19:30:50.966Z,23.72
2023-10-04T19:33:20.035Z,23.70
2023-10-04T19:35:50.671Z,23.67
2023-10-04T19:38:19.980Z,23.65
2023-10-04T19:40:48.868Z,23.64
2023-10-04T19:43:18.232Z,23.63
2023-10-04T19:45:45.452Z,23.62
2023-10-04T19:48:12.453Z,23.60
2023-10-04T19:50:39.415Z,23.60
2023-10-04T19:53:06.939Z,23.57
2023-10-04T19:55:34.225Z,23.58
2023-10-04T19:58:02.456Z,23.58
2023-10-04T20:00:32.870Z,23.56
2023-10-04T20:03:02.158Z,23.57
2023-10-04T20:05:32.907Z,23.55
2023-10-04T20:08:01.595Z,23.53
2023-10-04T20:10:37.687Z,23.50
2023-10-04T20:13:08.039Z,23.48
2023-10-04T20:15:39.502Z,23.45
2023-10-04T20:18:09.311Z,23.41
2023-10-04T20:20:39.016Z,23.37
2023-10-04T20:23:09.315Z,23.32
2023-10-04T20:25:46.856Z,23.29
2023-10-04T20:28:17.328Z,23.25
2023-10-04T20:30:46.225Z,23.21
2023-10-04T20:33:13.330Z,23.17
2023-10-04T20:35:44.676Z,23.14
2023-10-04T20:38:13.721Z,23.11
2023-10-04T20:40:41.267Z,23.09
2023-10-04T20:43:10.762Z,23.05
2023-10-04T20:45:40.244Z,23.01
2023-10-04T20:48:11.824Z,23.00
2023-10-04T20:50:40.331Z,22.97
2023-10-04T20:53:07.217Z,22.94
2023-10-04T20:55:34.153Z,22.94
2023-10-04T20:58:01.393Z,22.91
2023-10-04T21:00:28.577Z,22.87
2023-10-04T21:02:56.076Z,22.86
2023-10-04T21:05:22.935Z,22.86
2023-10-04T21:07:49.781Z,22.85
2023-10-04T21:10:17.199Z,22.81
2023-10-04T21:12:45.426Z,22.77
2023-10-04T21:15:17.274Z,22.73
2023-10-04T21:17:44.919Z,22.71
2023-10-04T21:20:12.551Z,22.69
2023-10-04T21:22:41.935Z,22.66
2023-10-04T21:25:10.542Z,22.62
2023-10-04T21:27:37.886Z,22.61
2023-10-04T21:30:08.566Z,22.61
2023-10-04T21:32:39.024Z,22.58
2023-10-04T21:35:20.050Z,22.59
2023-10-04T21:37:49.589Z,22.59
2023-10-04T21:40:20.252Z,22.58
2023-10-04T21:42:48.662Z,22.54
2023-10-04T21:45:22.126Z,22.55
2023-10-04T21:47:51.561Z,22.51
2023-10-04T21:50:20.907Z,22.49
2023-10-04T21:52:48.040Z,22.46
2023-10-04T21:55:15.092Z,22.45
2023-10-04T21:57:43.112Z,22.43
2023-10-04T22:00:30.158Z,22.40
2023-10-04T22:02:58.577Z,22.40
2023-10-04T22:05:26.337Z,22.39
2023-10-04T22:07:56.857Z,22.37
2023-10-04T22:10:24.927Z,22.33
2023-10-04T22:12:53.691Z,22.29
2023-10-04T22:15:21.047Z,22.25
2023-10-04T22:17:47.897Z,22.18
2023-10-04T22:20:15.846Z,22.13
2023-10-04T22:22:46.087Z,22.11
2023-10-04T22:25:13.743Z,22.10
2023-10-04T22:27:41.900Z,22.08
2023-10-04T22:30:20.303Z,22.05
2023-10-04T22:32:49.036Z,22.02
2023-10-04T22:35:16.170Z,22.00
2023-10-04T22:37:48.087Z,21.98
2023-10-04T22:40:19.692Z,21.93
2023-10-04T22:42:48.422Z,21.91
2023-10-04T22:45:17.089Z,21.88
2023-10-04T22:47:47.341Z,21.84
2023-10-04T22:50:17.328Z,21.81
2023-10-04T22:52:45.077Z,21.77
2023-10-04T22:55:15.726Z,21.75
2023-10-04T22:57:52.240Z,21.73
2023-10-04T23:00:22.099Z,21.69
2023-10-04T23:02:49.935Z,21.64
2023-10-04T23:05:21.002Z,21.63
2023-10-04T23:07:49.070Z,21.61
2023-10-04T23:10:17.287Z,21.61
2023-10-04T23:12:47.238Z,21.59
2023-10-04T23:15:14.942Z,21.60
2023-10-04T23:17:44.217Z,21.61
2023-10-04T23:20:30.281Z,21.59
2023-10-04T23:22:57.913Z,21.59
2023-10-04T23:25:29.460Z,21.58
2023-10-04T23:27:59.686Z,21.56
2023-10-04T23:30:27.411Z,21.54
2023-10-04T23:32:59.695Z,21.52
2023-10-04T23:35:41.877Z,21.52
2023-10-04T23:38:16.973Z,21.50
2023-10-04T23:40:51.270Z,21.49
2023-10-04T23:43:28.007Z,21.49
2023-10-04T23:45:58.472Z,21.50
2023-10-04T23:48:26.160Z,21.49
2023-10-04T23:50:57.411Z,21.50
2023-10-04T23:53:32.813Z,21.50
2023-10-04T23:56:01.284Z,21.50
2023-10-04T23:58:28.457Z,21.50
